createdAt,value
2022-10-06T00:00:23.920Z,64.91
2022-10-06T00:03:09.009Z,64.73
2022-10-06T00:05:59.358Z,63.27
2022-10-06T00:08:45.493Z,64.60
2022-10-06T00:11:30.941Z,64.65
2022-10-06T00:14:15.809Z,64.76
2022-10-06T00:17:00.825Z,64.58
2022-10-06T00:19:45.782Z,64.51
2022-10-06T00:22:37.598Z,63.13
2022-10-06T00:25:24.892Z,64.16
2022-10-06T00:28:10.173Z,64.42
2022-10-06T00:30:55.539Z,64.26
2022-10-06T00:33:41.116Z,64.39
2022-10-06T00:36:26.227Z,64.42
2022-10-06T00:39:11.164Z,64.28
2022-10-06T00:41:55.969Z,64.41
2022-10-06T00:44:41.790Z,64.22
2022-10-06T00:47:30.787Z,63.78
2022-10-06T00:50:16.459Z,64.32
2022-10-06T00:53:02.718Z,64.08
2022-10-06T00:55:47.622Z,64.13
2022-10-06T00:58:32.839Z,63.99
2022-10-06T01:01:18.026Z,63.99
2022-10-06T01:04:09.270Z,62.64
2022-10-06T01:06:57.691Z,63.84
2022-10-06T01:09:43.090Z,63.86
2022-10-06T01:12:29.790Z,63.86
2022-10-06T01:15:16.427Z,63.99
2022-10-06T01:18:05.893Z,63.18
2022-10-06T01:20:59.890Z,62.83
2022-10-06T01:23:45.181Z,63.82
2022-10-06T01:26:33.728Z,63.40
2022-10-06T01:29:20.063Z,63.63
2022-10-06T01:32:05.587Z,63.71
2022-10-06T01:34:50.918Z,63.49
2022-10-06T01:37:36.511Z,63.50
2022-10-06T01:40:22.703Z,63.51
2022-10-06T01:43:07.982Z,63.54
2022-10-06T01:45:57.275Z,62.13
2022-10-06T01:48:42.383Z,63.60
2022-10-06T01:51:28.175Z,63.45
2022-10-06T01:54:14.696Z,63.30
2022-10-06T01:56:59.893Z,63.36
2022-10-06T01:59:45.756Z,63.22
2022-10-06T02:02:31.412Z,63.43
2022-10-06T02:05:17.102Z,63.19
2022-10-06T02:08:05.883Z,63.28
2022-10-06T02:10:53.097Z,63.32
2022-10-06T02:13:41.854Z,63.38
2022-10-06T02:16:30.305Z,63.40
2022-10-06T02:19:15.600Z,63.45
2022-10-06T02:22:00.447Z,63.45
2022-10-06T02:24:45.814Z,63.50
2022-10-06T02:27:31.227Z,63.62
2022-10-06T02:30:17.155Z,63.72
2022-10-06T02:33:04.277Z,63.79
2022-10-06T02:35:54.775Z,62.68
2022-10-06T02:38:40.999Z,63.76
2022-10-06T02:41:27.243Z,63.87
2022-10-06T02:44:12.571Z,63.91
2022-10-06T02:47:00.252Z,63.09
2022-10-06T02:49:45.995Z,63.97
2022-10-06T02:52:36.214Z,63.15
2022-10-06T02:55:22.577Z,64.07
2022-10-06T02:58:07.430Z,64.09
2022-10-06T03:00:52.825Z,64.09
2022-10-06T03:03:38.057Z,64.13
2022-10-06T03:06:26.030Z,63.98
2022-10-06T03:09:21.311Z,64.30
2022-10-06T03:12:06.907Z,64.38
2022-10-06T03:14:56.272Z,64.41
2022-10-06T03:17:44.639Z,64.41
2022-10-06T03:20:31.268Z,64.49
2022-10-06T03:23:16.525Z,64.53
2022-10-06T03:26:01.996Z,64.58
2022-10-06T03:28:48.484Z,64.59
2022-10-06T03:31:33.869Z,64.40
2022-10-06T03:34:20.262Z,64.49
2022-10-06T03:37:05.640Z,64.50
2022-10-06T03:39:50.668Z,64.56
2022-10-06T03:42:36.502Z,64.53
2022-10-06T03:45:22.986Z,64.55
2022-10-06T03:48:08.356Z,64.51
2022-10-06T03:50:55.560Z,64.37
2022-10-06T03:53:44.541Z,63.84
2022-10-06T03:56:35.126Z,63.80
2022-10-06T03:59:20.888Z,64.53
2022-10-06T04:02:07.127Z,64.56
2022-10-06T04:04:55.338Z,64.55
2022-10-06T04:07:42.318Z,64.59
2022-10-06T04:10:27.427Z,64.51
2022-10-06T04:13:12.660Z,64.46
2022-10-06T04:15:58.093Z,64.50
2022-10-06T04:18:45.151Z,64.45
2022-10-06T04:21:32.463Z,64.59
2022-10-06T04:24:17.828Z,64.64
2022-10-06T04:27:05.151Z,64.84
2022-10-06T04:29:50.626Z,64.77
2022-10-06T04:32:35.684Z,64.90
2022-10-06T04:35:21.632Z,64.99
2022-10-06T04:38:07.007Z,64.88
2022-10-06T04:40:52.247Z,65.03
2022-10-06T04:43:37.856Z,65.03
2022-10-06T04:46:41.991Z,65.08
2022-10-06T04:49:28.495Z,65.13
2022-10-06T04:52:14.709Z,65.11
2022-10-06T04:55:00.549Z,65.11
2022-10-06T04:57:46.425Z,65.18
2022-10-06T05:00:31.870Z,65.09
2022-10-06T05:03:17.378Z,65.07
2022-10-06T05:06:18.253Z,64.29
2022-10-06T05:09:09.200Z,64.76
2022-10-06T05:11:55.563Z,65.27
2022-10-06T05:14:40.891Z,65.19
2022-10-06T05:17:26.544Z,65.26
2022-10-06T05:20:12.328Z,65.35
2022-10-06T05:22:57.710Z,65.37
2022-10-06T05:25:50.823Z,64.34
2022-10-06T05:28:36.634Z,65.39
2022-10-06T05:31:24.969Z,65.20
2022-10-06T05:34:10.072Z,65.51
2022-10-06T05:36:55.300Z,65.62
2022-10-06T05:39:40.613Z,65.85
2022-10-06T05:42:29.506Z,65.74
2022-10-06T05:45:15.279Z,65.71
2022-10-06T05:48:01.048Z,65.82
2022-10-06T05:50:46.312Z,65.84
2022-10-06T05:53:33.691Z,65.86
2022-10-06T05:56:24.792Z,65.28
2022-10-06T05:59:09.980Z,66.13
2022-10-06T06:01:55.630Z,66.21
2022-10-06T06:04:49.593Z,66.26
2022-10-06T06:07:35.335Z,66.41
2022-10-06T06:10:20.461Z,66.38
2022-10-06T06:13:05.455Z,66.38
2022-10-06T06:15:59.625Z,65.56
2022-10-06T06:18:45.716Z,66.62
2022-10-06T06:21:32.801Z,66.54
2022-10-06T06:24:17.782Z,66.56
2022-10-06T06:27:02.658Z,66.69
2022-10-06T06:29:47.965Z,66.69
2022-10-06T06:32:33.604Z,66.55
2022-10-06T06:35:19.077Z,66.64
2022-10-06T06:38:03.947Z,66.79
2022-10-06T06:40:49.002Z,66.64
2022-10-06T06:43:34.680Z,66.75
2022-10-06T06:46:42.748Z,66.62
2022-10-06T06:49:31.545Z,66.55
2022-10-06T06:52:21.433Z,66.56
2022-10-06T06:55:06.676Z,66.53
2022-10-06T06:57:52.167Z,66.47
2022-10-06T07:00:37.674Z,66.65
2022-10-06T07:03:55.598Z,66.63
2022-10-06T07:06:30.605Z,66.03
2022-10-06T07:09:17.449Z,66.56
2022-10-06T07:12:03.575Z,66.57
2022-10-06T07:14:48.940Z,66.42
2022-10-06T07:17:34.186Z,66.15
2022-10-06T07:20:19.617Z,66.24
2022-10-06T07:23:05.250Z,65.96
2022-10-06T07:25:51.230Z,65.69
2022-10-06T07:28:36.395Z,65.55
2022-10-06T07:31:21.845Z,65.34
2022-10-06T07:34:06.807Z,65.16
2022-10-06T07:36:52.044Z,64.98
2022-10-06T07:39:37.157Z,64.76
2022-10-06T07:42:22.514Z,64.56
2022-10-06T07:45:08.234Z,64.50
2022-10-06T07:48:00.249Z,59.79
2022-10-06T07:50:50.441Z,61.16
2022-10-06T07:53:39.803Z,63.03
2022-10-06T07:56:36.422Z,63.22
2022-10-06T07:59:22.161Z,62.64
2022-10-06T08:02:07.229Z,61.72
2022-10-06T08:04:52.920Z,61.95
2022-10-06T08:07:38.143Z,62.13
2022-10-06T08:10:23.263Z,61.49
2022-10-06T08:13:09.450Z,61.11
2022-10-06T08:15:54.641Z,59.80
2022-10-06T08:18:46.503Z,59.85
2022-10-06T08:21:33.353Z,60.57
2022-10-06T08:24:18.288Z,60.06
2022-10-06T08:27:03.781Z,59.65
2022-10-06T08:29:49.054Z,59.14
2022-10-06T08:32:34.552Z,59.11
2022-10-06T08:35:19.888Z,59.32
2022-10-06T08:38:05.859Z,59.45
2022-10-06T08:40:51.342Z,60.05
2022-10-06T08:43:36.749Z,60.20
2022-10-06T08:46:25.019Z,59.21
2022-10-06T08:49:18.917Z,55.98
2022-10-06T08:52:40.070Z,54.54
2022-10-06T08:55:42.045Z,56.31
2022-10-06T08:58:46.002Z,59.45
2022-10-06T09:01:46.757Z,57.34
2022-10-06T09:04:32.542Z,58.60
2022-10-06T09:07:31.579Z,57.97
2022-10-06T09:10:41.196Z,55.74
2022-10-06T09:13:35.963Z,55.88
2022-10-06T09:16:30.701Z,57.44
2022-10-06T09:19:24.832Z,55.79
2022-10-06T09:22:20.381Z,56.45
2022-10-06T09:25:26.206Z,53.51
2022-10-06T09:28:15.429Z,55.96
2022-10-06T09:31:03.915Z,53.83
2022-10-06T09:33:52.144Z,52.41
2022-10-06T09:37:00.905Z,53.94
2022-10-06T09:39:52.098Z,53.34
2022-10-06T09:42:37.151Z,54.64
2022-10-06T09:45:26.274Z,53.63
2022-10-06T09:48:22.200Z,55.01
2022-10-06T09:51:15.193Z,54.34
2022-10-06T09:54:18.352Z,55.13
2022-10-06T09:57:28.753Z,54.62
2022-10-06T10:00:35.195Z,56.09
2022-10-06T10:03:21.580Z,55.65
2022-10-06T10:06:07.013Z,56.13
2022-10-06T10:08:52.107Z,55.90
2022-10-06T10:11:37.446Z,56.44
2022-10-06T10:14:22.715Z,55.23
2022-10-06T10:17:16.809Z,52.20
2022-10-06T10:20:06.435Z,54.79
2022-10-06T10:22:52.931Z,55.18
2022-10-06T10:25:58.434Z,55.30
2022-10-06T10:29:05.343Z,54.74
2022-10-06T10:32:17.031Z,54.98
2022-10-06T10:35:15.237Z,53.40
2022-10-06T10:38:13.724Z,56.42
2022-10-06T10:41:07.360Z,55.49
2022-10-06T10:44:29.265Z,55.95
2022-10-06T10:47:37.692Z,55.71
2022-10-06T10:50:28.914Z,53.72
2022-10-06T10:56:25.773Z,52.36
2022-10-06T10:59:30.451Z,52.95
2022-10-06T11:02:20.219Z,50.63
2022-10-06T11:05:12.669Z,51.13
2022-10-06T11:08:30.431Z,52.66
2022-10-06T11:11:43.156Z,53.22
2022-10-06T11:14:50.348Z,53.70
2022-10-06T11:17:41.772Z,55.12
2022-10-06T11:20:39.052Z,55.28
2022-10-06T11:23:31.140Z,51.34
2022-10-06T11:26:32.613Z,54.59
2022-10-06T11:29:36.441Z,54.90
2022-10-06T11:32:30.428Z,53.65
2022-10-06T11:35:25.019Z,51.78
2022-10-06T11:38:15.686Z,52.54
2022-10-06T11:41:10.300Z,51.89
2022-10-06T11:44:06.498Z,51.32
2022-10-06T11:46:56.279Z,53.09
2022-10-06T11:49:44.277Z,53.96
2022-10-06T11:52:29.097Z,54.92
2022-10-06T11:55:18.138Z,54.91
2022-10-06T11:58:29.915Z,55.50
2022-10-06T12:01:34.577Z,55.11
2022-10-06T12:04:24.377Z,55.27
2022-10-06T12:07:10.351Z,55.78
2022-10-06T12:10:27.427Z,54.98
2022-10-06T12:20:18.172Z,53.60
2022-10-06T12:23:09.023Z,53.83
2022-10-06T12:25:54.440Z,53.36
2022-10-06T12:28:47.510Z,53.66
2022-10-06T12:31:52.310Z,52.25
2022-10-06T12:34:40.340Z,52.89
2022-10-06T12:37:34.019Z,52.39
2022-10-06T12:40:40.796Z,52.26
2022-10-06T12:43:28.474Z,52.88
2022-10-06T12:46:22.687Z,53.97
2022-10-06T12:49:42.889Z,53.26
2022-10-06T12:52:36.778Z,51.13
2022-10-06T12:55:38.564Z,49.33
2022-10-06T12:58:28.804Z,52.36
2022-10-06T13:01:13.819Z,53.54
2022-10-06T13:03:59.086Z,52.72
2022-10-06T13:06:49.938Z,52.13
2022-10-06T13:09:35.027Z,51.90
2022-10-06T13:12:32.611Z,49.67
2022-10-06T13:15:27.423Z,48.70
2022-10-06T13:18:17.590Z,49.23
2022-10-06T13:31:15.093Z,48.10
2022-10-06T13:33:43.822Z,48.19
2022-10-06T13:36:12.045Z,49.01
2022-10-06T13:38:39.767Z,47.74
2022-10-06T13:41:06.327Z,48.71
2022-10-06T13:43:39.945Z,49.18
2022-10-06T13:46:14.930Z,49.42
2022-10-06T13:48:57.945Z,49.76
2022-10-06T13:51:28.400Z,50.15
2022-10-06T13:53:55.978Z,50.67
2022-10-06T13:56:40.084Z,50.60
2022-10-06T13:59:38.155Z,51.67
2022-10-06T14:02:23.333Z,49.96
2022-10-06T14:05:27.418Z,50.20
2022-10-06T14:07:57.829Z,49.96
2022-10-06T14:10:29.365Z,49.71
2022-10-06T14:12:56.168Z,49.64
2022-10-06T14:15:25.785Z,50.35
2022-10-06T14:17:58.888Z,49.50
2022-10-06T14:20:40.960Z,49.45
2022-10-06T14:23:45.319Z,50.05
2022-10-06T14:26:13.372Z,50.66
2022-10-06T14:28:40.909Z,51.41
2022-10-06T14:31:11.975Z,51.19
2022-10-06T14:33:40.755Z,51.73
2022-10-06T14:36:15.114Z,51.39
2022-10-06T14:38:41.624Z,52.83
2022-10-06T14:41:08.244Z,52.24
2022-10-06T14:43:34.884Z,51.87
2022-10-06T14:46:04.026Z,51.47
2022-10-06T14:48:32.743Z,51.71
2022-10-06T14:51:02.306Z,50.12
2022-10-06T14:53:28.889Z,49.80
2022-10-06T14:56:04.942Z,50.07
2022-10-06T14:58:31.695Z,50.85
2022-10-06T15:01:06.430Z,50.84
2022-10-06T15:03:34.094Z,51.43
2022-10-06T15:06:05.374Z,51.91
2022-10-06T15:08:31.982Z,51.98
2022-10-06T15:10:58.527Z,52.35
2022-10-06T15:13:25.590Z,51.69
2022-10-06T15:15:58.009Z,51.58
2022-10-06T15:18:24.633Z,52.26
2022-10-06T15:20:51.111Z,51.95
2022-10-06T15:23:17.639Z,51.10
2022-10-06T15:25:51.672Z,51.80
2022-10-06T15:28:21.258Z,51.38
2022-10-06T15:30:50.145Z,51.88
2022-10-06T15:33:16.706Z,51.83
2022-10-06T15:35:58.062Z,51.94
2022-10-06T15:38:24.602Z,51.70
2022-10-06T15:41:04.240Z,51.66
2022-10-06T15:43:31.948Z,51.92
2022-10-06T15:45:58.436Z,52.22
2022-10-06T15:48:24.928Z,52.46
2022-10-06T15:50:51.438Z,52.82
2022-10-06T15:53:17.953Z,52.96
2022-10-06T15:55:44.461Z,53.49
2022-10-06T15:58:10.935Z,53.78
2022-10-06T16:00:37.460Z,54.17
2022-10-06T16:03:04.027Z,54.55
2022-10-06T16:05:30.631Z,54.65
2022-10-06T16:07:57.152Z,54.79
2022-10-06T16:10:23.608Z,55.67
2022-10-06T16:12:50.075Z,55.70
2022-10-06T16:15:16.615Z,55.59
2022-10-06T16:17:43.133Z,56.28
2022-10-06T16:20:09.906Z,56.51
2022-10-06T16:22:36.680Z,56.87
2022-10-06T16:25:03.510Z,57.41
2022-10-06T16:27:33.348Z,57.34
2022-10-06T16:30:00.221Z,57.55
2022-10-06T16:32:26.749Z,57.54
2022-10-06T16:34:53.387Z,57.51
2022-10-06T16:37:19.821Z,57.72
2022-10-06T16:39:46.269Z,57.98
2022-10-06T16:42:12.813Z,58.20
2022-10-06T16:44:39.297Z,58.26
2022-10-06T16:47:05.946Z,58.52
2022-10-06T16:49:32.478Z,58.62
2022-10-06T16:51:58.925Z,59.02
2022-10-06T16:54:25.760Z,59.18
2022-10-06T16:56:52.404Z,59.20
2022-10-06T16:59:20.643Z,59.44
2022-10-06T17:01:48.093Z,59.31
2022-10-06T17:04:19.919Z,59.78
2022-10-06T17:06:49.159Z,59.74
2022-10-06T17:09:20.896Z,59.84
2022-10-06T17:11:52.648Z,60.17
2022-10-06T17:14:20.052Z,60.05
2022-10-06T17:16:48.261Z,60.49
2022-10-06T17:19:16.538Z,60.70
2022-10-06T17:21:46.605Z,60.73
2022-10-06T17:24:14.990Z,61.03
2022-10-06T17:26:43.852Z,61.22
2022-10-06T17:29:17.002Z,61.24
2022-10-06T17:31:43.701Z,61.11
2022-10-06T17:34:14.318Z,61.40
2022-10-06T17:36:44.900Z,61.58
2022-10-06T17:39:12.064Z,61.46
2022-10-06T17:41:41.466Z,61.48
2022-10-06T17:44:10.718Z,61.47
2022-10-06T17:46:40.473Z,61.40
2022-10-06T17:49:09.196Z,61.63
2022-10-06T17:51:38.252Z,61.72
2022-10-06T17:54:07.460Z,62.13
2022-10-06T17:56:34.861Z,62.07
2022-10-06T17:59:07.059Z,62.03
2022-10-06T18:01:35.363Z,62.10
2022-10-06T18:04:04.276Z,62.04
2022-10-06T18:06:33.596Z,62.14
2022-10-06T18:09:00.691Z,62.31
2022-10-06T18:11:28.808Z,62.47
2022-10-06T18:13:55.525Z,62.21
2022-10-06T18:16:23.957Z,62.59
2022-10-06T18:18:52.440Z,62.56
2022-10-06T18:21:21.450Z,62.60
2022-10-06T18:23:48.436Z,62.83
2022-10-06T18:26:16.866Z,62.90
2022-10-06T18:28:45.566Z,63.07
2022-10-06T18:31:13.643Z,62.96
2022-10-06T18:36:26.912Z,62.84
2022-10-06T18:38:53.553Z,62.63
2022-10-06T18:41:20.223Z,62.80
2022-10-06T18:43:46.852Z,63.08
2022-10-06T18:46:15.690Z,63.19
2022-10-06T18:48:42.303Z,63.13
2022-10-06T18:51:08.910Z,63.19
2022-10-06T18:53:35.747Z,63.25
2022-10-06T18:56:02.211Z,63.31
2022-10-06T18:58:28.668Z,63.53
2022-10-06T19:00:55.423Z,63.64
2022-10-06T19:03:22.017Z,63.57
2022-10-06T19:05:52.641Z,63.92
2022-10-06T19:08:19.103Z,63.65
2022-10-06T19:10:45.606Z,63.80
2022-10-06T19:13:12.095Z,63.64
2022-10-06T19:15:38.754Z,63.92
2022-10-06T19:18:05.413Z,63.86
2022-10-06T19:20:31.989Z,63.73
2022-10-06T19:22:58.513Z,63.83
2022-10-06T19:25:24.992Z,63.81
2022-10-06T19:27:51.492Z,63.97
2022-10-06T19:30:17.995Z,63.88
2022-10-06T19:32:44.463Z,63.93
2022-10-06T19:35:11.359Z,63.98
2022-10-06T19:37:38.623Z,63.98
2022-10-06T19:40:05.270Z,64.03
2022-10-06T19:42:31.899Z,63.99
2022-10-06T19:44:58.806Z,64.07
2022-10-06T19:47:26.060Z,64.04
2022-10-06T19:49:53.997Z,64.13
2022-10-06T19:52:22.562Z,64.30
2022-10-06T19:54:49.128Z,64.27
2022-10-06T19:57:15.834Z,64.46
2022-10-06T19:59:42.435Z,64.36
2022-10-06T20:02:10.720Z,64.26
2022-10-06T20:04:37.849Z,64.27
2022-10-06T20:07:04.478Z,64.23
2022-10-06T20:09:32.099Z,64.20
2022-10-06T20:11:59.410Z,64.34
2022-10-06T20:14:26.325Z,64.46
2022-10-06T20:16:54.320Z,64.53
2022-10-06T20:19:21.459Z,64.54
2022-10-06T20:21:48.573Z,64.66
2022-10-06T20:24:18.042Z,64.92
2022-10-06T20:26:45.642Z,64.75
2022-10-06T20:29:13.458Z,65.07
2022-10-06T20:31:43.209Z,65.18
2022-10-06T20:34:12.527Z,65.30
2022-10-06T20:36:39.503Z,65.14
2022-10-06T20:39:07.572Z,65.31
2022-10-06T20:41:34.123Z,65.22
2022-10-06T20:44:01.916Z,65.46
2022-10-06T20:46:31.497Z,65.38
2022-10-06T20:49:03.763Z,65.36
2022-10-06T20:51:31.593Z,65.41
2022-10-06T20:53:59.168Z,65.32
2022-10-06T20:56:26.088Z,65.08
2022-10-06T20:58:53.541Z,64.91
2022-10-06T21:01:21.660Z,64.71
2022-10-06T21:03:48.991Z,64.45
2022-10-06T21:06:17.409Z,64.82
2022-10-06T21:08:45.503Z,64.45
2022-10-06T21:11:13.494Z,64.28
2022-10-06T21:13:40.561Z,64.67
2022-10-06T21:16:07.262Z,64.50
2022-10-06T21:18:34.102Z,64.48
2022-10-06T21:21:05.447Z,64.48
2022-10-06T21:23:38.101Z,64.39
2022-10-06T21:26:06.413Z,64.49
2022-10-06T21:28:33.869Z,64.36
2022-10-06T21:31:05.255Z,64.30
2022-10-06T21:33:31.944Z,64.43
2022-10-06T21:36:02.873Z,64.38
2022-10-06T21:38:30.381Z,64.56
2022-10-06T21:41:01.829Z,64.56
2022-10-06T21:43:28.338Z,64.92
2022-10-06T21:46:17.166Z,65.00
2022-10-06T21:48:41.265Z,65.15
2022-10-06T21:51:07.799Z,65.25
2022-10-06T21:53:34.363Z,65.32
2022-10-06T21:56:00.858Z,65.44
2022-10-06T21:58:27.532Z,65.32
2022-10-06T22:00:58.070Z,65.22
2022-10-06T22:03:24.755Z,65.24
2022-10-06T22:05:51.199Z,65.16
2022-10-06T22:08:17.633Z,64.98
2022-10-06T22:10:44.196Z,65.11
2022-10-06T22:13:10.755Z,65.23
2022-10-06T22:15:37.312Z,65.48
2022-10-06T22:18:04.019Z,65.66
2022-10-06T22:20:30.479Z,65.90
2022-10-06T22:23:00.265Z,65.91
2022-10-06T22:25:29.077Z,66.05
2022-10-06T22:27:55.500Z,66.01
2022-10-06T22:30:21.976Z,65.96
2022-10-06T22:32:48.449Z,65.91
2022-10-06T22:35:15.027Z,65.93
2022-10-06T22:37:41.751Z,65.89
2022-10-06T22:40:09.452Z,65.89
2022-10-06T22:42:36.040Z,66.02
2022-10-06T22:45:02.540Z,65.90
2022-10-06T22:47:28.977Z,66.03
2022-10-06T22:49:55.506Z,65.94
2022-10-06T22:52:21.944Z,66.12
2022-10-06T22:54:48.472Z,66.18
2022-10-06T22:57:14.989Z,66.32
2022-10-06T22:59:41.443Z,66.36
2022-10-06T23:02:07.940Z,66.49
2022-10-06T23:04:34.481Z,66.33
2022-10-06T23:07:00.916Z,66.61
2022-10-06T23:09:27.625Z,66.49
2022-10-06T23:11:54.064Z,66.58
2022-10-06T23:14:20.575Z,66.56
2022-10-06T23:16:47.355Z,66.42
2022-10-06T23:19:14.040Z,66.57
2022-10-06T23:21:40.590Z,66.35
2022-10-06T23:24:07.223Z,66.40
2022-10-06T23:26:33.688Z,66.29
2022-10-06T23:29:01.392Z,66.52
2022-10-06T23:31:28.920Z,66.67
2022-10-06T23:33:55.899Z,66.73
2022-10-06T23:36:22.791Z,66.79
2022-10-06T23:38:49.312Z,66.76
2022-10-06T23:41:16.363Z,66.84
2022-10-06T23:43:43.418Z,66.98
2022-10-06T23:46:10.399Z,67.23
2022-10-06T23:48:36.835Z,67.26
2022-10-06T23:51:12.242Z,66.81
2022-10-06T23:53:39.436Z,66.93
2022-10-06T23:56:06.878Z,66.98
2022-10-06T23:58:33.837Z,66.93
